Time;durP1;ratioP1;P1;durP2;ratioP2;P2;SDS_P1;SDS_P2;PMS_P1;PMS_P2;Temp;Humidity;BMP_temperature;BMP_pressure;BME280_temperature;BME280_humidity;BME280_pressure;Samples;Min_cycle;Max_cycle;Signal;HPM_P1;HPM_P2
2021/05/20 00:01:34;;;;;;;2.13;1.90;;;12.80;91.50;;;;;;5008148;28;20034;-75
2021/05/20 00:03:59;;;;;;;3.67;2.67;;;12.80;91.40;;;;;;5015951;28;20047;-76
2021/05/20 00:06:27;;;;;;;3.92;2.58;;;12.90;91.50;;;;;;5012822;28;20163;-76
2021/05/20 00:08:53;;;;;;;2.45;1.88;;;12.80;91.70;;;;;;5005404;28;20045;-76
2021/05/20 00:11:18;;;;;;;2.42;1.95;;;12.80;91.50;;;;;;5016365;28;20041;-76
2021/05/20 00:13:44;;;;;;;2.63;2.05;;;12.80;91.40;;;;;;5001457;28;20053;-76
2021/05/20 00:16:09;;;;;;;2.58;2.00;;;12.80;91.50;;;;;;5003540;28;20042;-76
2021/05/20 00:18:35;;;;;;;2.20;1.77;;;12.70;91.70;;;;;;5010059;28;20361;-77
2021/05/20 00:21:00;;;;;;;1.80;1.70;;;12.80;91.80;;;;;;5007926;28;20115;-77
2021/05/20 00:23:25;;;;;;;2.08;1.77;;;12.80;91.80;;;;;;5010799;28;20640;-77
2021/05/20 00:25:51;;;;;;;2.80;2.05;;;12.80;91.90;;;;;;5011803;28;20125;-77
2021/05/20 00:28:16;;;;;;;3.47;2.17;;;12.70;91.90;;;;;;5003067;28;20057;-77
2021/05/20 00:30:42;;;;;;;2.42;2.00;;;12.60;92.40;;;;;;5005506;28;20100;-77
2021/05/20 00:33:07;;;;;;;3.13;2.45;;;12.60;92.50;;;;;;5013942;28;20432;-78
2021/05/20 00:35:33;;;;;;;3.20;2.17;;;12.60;93.00;;;;;;5009254;28;20046;-77
2021/05/20 00:37:58;;;;;;;2.70;2.50;;;12.50;93.10;;;;;;5010011;28;20036;-78
2021/05/20 00:40:24;;;;;;;4.85;2.38;;;12.50;93.10;;;;;;5017968;28;20401;-78
2021/05/20 00:42:49;;;;;;;3.30;3.00;;;12.50;93.10;;;;;;5009999;28;20073;-77
2021/05/20 00:45:15;;;;;;;2.80;2.42;;;12.50;93.20;;;;;;5012456;28;20092;-78
2021/05/20 00:47:41;;;;;;;3.30;2.83;;;12.50;93.20;;;;;;5002669;28;20070;-78
2021/05/20 00:50:10;;;;;;;2.42;2.22;;;12.50;93.30;;;;;;5001556;28;20776;-77
2021/05/20 00:52:37;;;;;;;3.33;2.30;;;12.50;93.20;;;;;;5016857;28;20503;-77
2021/05/20 00:55:07;;;;;;;4.10;2.53;;;12.50;93.30;;;;;;5015993;28;20041;-77
2021/05/20 00:57:34;;;;;;;2.28;2.08;;;12.50;93.20;;;;;;5006170;28;20030;-78
2021/05/20 01:00:07;;;;;;;3.08;2.53;;;12.50;93.10;;;;;;5005316;28;20034;-78
2021/05/20 01:02:32;;;;;;;3.15;2.20;;;12.50;93.00;;;;;;5001465;28;20048;-78
2021/05/20 01:04:58;;;;;;;5.78;2.33;;;12.50;93.00;;;;;;5007846;28;20046;-78
2021/05/20 01:07:23;;;;;;;2.33;2.03;;;12.50;92.90;;;;;;5027229;28;20419;-78
2021/05/20 01:09:49;;;;;;;3.10;2.53;;;12.50;92.90;;;;;;5013102;28;20073;-78
2021/05/20 01:12:14;;;;;;;2.47;1.98;;;12.50;92.90;;;;;;5012458;28;20342;-78
2021/05/20 01:14:44;;;;;;;2.75;2.28;;;12.50;93.00;;;;;;5008732;28;20132;-78
2021/05/20 01:17:13;;;;;;;2.85;2.50;;;12.60;93.00;;;;;;5005971;28;20034;-78
2021/05/20 01:19:41;;;;;;;2.67;2.15;;;12.50;93.10;;;;;;5005523;28;20042;-76
2021/05/20 01:22:08;;;;;;;1.67;1.58;;;12.50;93.00;;;;;;5007643;28;20041;-77
2021/05/20 01:24:34;;;;;;;2.05;1.85;;;12.40;92.90;;;;;;5012811;28;20052;-78
2021/05/20 01:27:04;;;;;;;2.75;2.17;;;12.40;93.10;;;;;;5015432;28;20045;-77
2021/05/20 01:29:30;;;;;;;2.67;1.60;;;12.30;92.90;;;;;;5011911;28;20034;-77
2021/05/20 01:31:56;;;;;;;2.42;1.83;;;12.30;92.90;;;;;;5007414;28;20049;-77
2021/05/20 01:34:21;;;;;;;3.25;2.28;;;12.20;93.00;;;;;;5019457;28;20121;-78
2021/05/20 01:36:47;;;;;;;3.55;2.67;;;12.20;93.10;;;;;;5001557;28;20168;-77
2021/05/20 01:39:12;;;;;;;4.88;1.60;;;12.10;93.30;;;;;;5007787;28;20080;-78
2021/05/20 01:41:38;;;;;;;4.50;1.95;;;12.10;93.60;;;;;;5014185;28;20037;-78
2021/05/20 01:44:03;;;;;;;2.97;1.95;;;12.10;93.60;;;;;;5004564;28;20038;-77
2021/05/20 01:46:29;;;;;;;4.82;2.08;;;12.10;93.70;;;;;;5006981;28;20398;-77
2021/05/20 01:48:55;;;;;;;3.53;2.00;;;12.10;93.60;;;;;;5007538;28;20078;-77
2021/05/20 01:51:22;;;;;;;2.95;1.83;;;12.00;93.70;;;;;;5013049;28;20041;-77
2021/05/20 01:53:56;;;;;;;3.22;1.92;;;12.00;93.70;;;;;;5007950;28;20417;-77
2021/05/20 01:56:24;;;;;;;3.53;2.10;;;12.10;93.90;;;;;;5002985;28;20050;-77
2021/05/20 01:58:50;;;;;;;2.78;1.83;;;12.00;93.90;;;;;;5003953;28;20092;-77
2021/05/20 02:01:16;;;;;;;2.17;1.98;;;12.00;93.90;;;;;;5011657;28;20070;-77
2021/05/20 02:03:41;;;;;;;2.95;2.35;;;12.00;94.00;;;;;;5001059;28;20035;-77
2021/05/20 02:06:08;;;;;;;2.53;2.15;;;12.00;94.40;;;;;;5006724;28;20137;-78
2021/05/20 02:08:36;;;;;;;3.08;2.70;;;12.00;94.20;;;;;;5006514;28;20211;-77
2021/05/20 02:11:03;;;;;;;2.50;2.08;;;12.10;94.30;;;;;;5019434;28;20042;-78
2021/05/20 02:13:29;;;;;;;5.15;2.72;;;12.10;94.30;;;;;;4999581;28;20139;-78
2021/05/20 02:15:54;;;;;;;2.38;2.15;;;12.10;94.30;;;;;;5009902;28;20057;-77
2021/05/20 02:18:20;;;;;;;2.33;2.13;;;12.10;94.30;;;;;;5006066;28;20037;-78
2021/05/20 02:20:46;;;;;;;3.05;2.08;;;12.20;94.20;;;;;;5007891;28;20038;-78
2021/05/20 02:23:13;;;;;;;2.35;1.85;;;12.20;94.20;;;;;;5002325;28;20034;-78
2021/05/20 02:25:39;;;;;;;3.65;2.72;;;12.20;94.20;;;;;;4998610;28;20503;-77
2021/05/20 02:28:04;;;;;;;3.20;2.53;;;12.20;94.20;;;;;;5013029;28;20045;-78
2021/05/20 02:30:30;;;;;;;2.70;2.45;;;12.20;94.30;;;;;;5001120;28;20318;-78
2021/05/20 02:32:56;;;;;;;4.18;2.65;;;12.20;94.40;;;;;;5005366;28;20262;-78
2021/05/20 02:35:22;;;;;;;3.35;2.10;;;12.20;94.40;;;;;;5007246;28;20046;-78
2021/05/20 02:37:48;;;;;;;2.88;2.25;;;12.10;94.40;;;;;;4999517;28;20062;-77
2021/05/20 02:40:14;;;;;;;2.90;2.60;;;12.10;94.40;;;;;;5004185;28;20260;-79
2021/05/20 02:42:41;;;;;;;3.38;2.33;;;12.00;94.50;;;;;;5010183;28;20056;-76
2021/05/20 02:45:10;;;;;;;3.85;2.97;;;11.90;94.80;;;;;;5011079;28;20246;-77
2021/05/20 02:47:36;;;;;;;3.55;2.45;;;11.90;94.80;;;;;;4997832;28;20046;-78
2021/05/20 02:50:03;;;;;;;4.38;2.58;;;11.90;94.90;;;;;;5011746;28;20267;-77
2021/05/20 02:52:29;;;;;;;3.40;2.80;;;11.90;94.90;;;;;;5000914;28;20057;-77
2021/05/20 02:54:55;;;;;;;3.15;2.72;;;11.90;95.00;;;;;;5007222;28;20042;-78
2021/05/20 02:57:20;;;;;;;3.10;2.80;;;11.90;95.00;;;;;;5008632;28;20095;-80
2021/05/20 02:59:46;;;;;;;3.55;3.25;;;11.80;95.00;;;;;;5012744;28;20054;-77
2021/05/20 03:02:11;;;;;;;4.22;2.90;;;11.80;95.10;;;;;;5005874;28;20183;-77
2021/05/20 03:04:37;;;;;;;3.67;3.25;;;11.80;95.30;;;;;;5012496;28;20117;-77
2021/05/20 03:07:05;;;;;;;4.45;3.63;;;11.90;95.30;;;;;;5011798;28;20136;-78
2021/05/20 03:09:30;;;;;;;5.38;3.70;;;11.80;95.20;;;;;;5001738;28;20246;-77
2021/05/20 03:11:58;;;;;;;5.03;4.13;;;11.80;95.30;;;;;;5005447;28;20129;-77
2021/05/20 03:14:24;;;;;;;6.25;4.88;;;11.80;95.30;;;;;;5002165;28;20414;-78
2021/05/20 03:16:50;;;;;;;6.82;4.70;;;11.80;95.30;;;;;;5018335;28;20103;-78
2021/05/20 03:19:15;;;;;;;5.53;4.10;;;11.80;95.30;;;;;;5012225;28;20109;-79
2021/05/20 03:21:41;;;;;;;5.88;4.30;;;11.70;95.50;;;;;;5017827;28;20045;-79
2021/05/20 03:24:07;;;;;;;4.65;3.75;;;11.70;95.40;;;;;;5011455;28;20041;-79
2021/05/20 03:26:33;;;;;;;6.30;4.43;;;11.70;95.50;;;;;;5004289;28;20449;-78
2021/05/20 03:28:59;;;;;;;7.28;4.88;;;11.80;95.40;;;;;;5012777;28;20184;-78
2021/05/20 03:31:24;;;;;;;6.30;4.47;;;11.80;95.50;;;;;;5011992;28;20038;-77
2021/05/20 03:33:50;;;;;;;6.40;4.40;;;11.70;95.60;;;;;;5018476;28;20057;-78
2021/05/20 03:36:15;;;;;;;5.40;4.22;;;11.80;95.50;;;;;;5011622;28;20042;-77
2021/05/20 03:38:41;;;;;;;6.78;4.20;;;11.80;95.50;;;;;;5014428;28;20034;-77
2021/05/20 03:41:06;;;;;;;7.05;4.70;;;11.80;95.40;;;;;;5007435;28;20064;-78
2021/05/20 03:43:32;;;;;;;8.02;4.00;;;11.80;95.50;;;;;;5010257;28;20089;-78
2021/05/20 03:45:58;;;;;;;7.88;4.68;;;11.80;95.40;;;;;;5017559;28;20084;-79
2021/05/20 03:48:24;;;;;;;5.75;4.38;;;11.80;95.50;;;;;;5007587;28;20057;-78
2021/05/20 03:50:49;;;;;;;6.07;4.55;;;11.90;95.40;;;;;;5005749;28;20461;-78
2021/05/20 03:53:15;;;;;;;6.03;3.85;;;11.90;95.30;;;;;;5011910;28;20337;-78
2021/05/20 03:55:40;;;;;;;6.13;4.22;;;11.90;95.30;;;;;;5016587;28;20046;-78
2021/05/20 03:58:06;;;;;;;6.05;4.47;;;11.90;95.40;;;;;;5008937;28;20104;-77
2021/05/20 04:00:31;;;;;;;5.63;4.70;;;11.90;95.30;;;;;;5004918;28;20030;-77
2021/05/20 04:02:57;;;;;;;5.25;4.65;;;11.90;95.20;;;;;;5003691;28;20054;-77
2021/05/20 04:05:22;;;;;;;6.03;4.35;;;11.90;95.30;;;;;;5009760;28;20038;-78
2021/05/20 04:07:48;;;;;;;8.30;4.05;;;11.90;95.20;;;;;;5002797;28;20129;-78
2021/05/20 04:10:13;;;;;;;7.32;3.88;;;11.90;95.00;;;;;;5022948;28;20049;-77
2021/05/20 04:12:39;;;;;;;4.90;3.72;;;11.90;95.10;;;;;;5005987;28;20061;-77
2021/05/20 04:15:05;;;;;;;6.28;4.18;;;11.90;95.00;;;;;;5004334;28;20436;-78
2021/05/20 04:17:31;;;;;;;5.25;4.38;;;11.90;94.80;;;;;;5013098;28;20093;-78
2021/05/20 04:19:56;;;;;;;5.88;4.35;;;11.90;94.90;;;;;;5025412;28;20045;-78
2021/05/20 04:22:22;;;;;;;5.95;3.92;;;11.90;94.80;;;;;;4999062;28;20050;-78
2021/05/20 04:24:47;;;;;;;5.25;3.97;;;11.90;94.80;;;;;;5011577;28;20048;-78
2021/05/20 04:27:13;;;;;;;6.97;3.85;;;12.00;94.50;;;;;;5004758;28;20571;-79
2021/05/20 04:29:38;;;;;;;4.50;3.67;;;12.00;94.60;;;;;;5005643;28;20045;-78
2021/05/20 04:32:04;;;;;;;8.40;4.40;;;12.00;94.50;;;;;;5002327;28;20049;-78
2021/05/20 04:34:30;;;;;;;4.68;3.72;;;12.10;94.30;;;;;;5004343;28;20048;-79
2021/05/20 04:36:55;;;;;;;6.18;4.05;;;12.10;94.40;;;;;;5012142;28;20072;-78
2021/05/20 04:39:21;;;;;;;4.97;3.72;;;12.10;94.40;;;;;;5008631;28;20209;-77
2021/05/20 04:41:46;;;;;;;4.35;3.95;;;12.10;94.30;;;;;;5010180;28;20033;-78
2021/05/20 04:44:12;;;;;;;5.00;4.00;;;12.10;94.40;;;;;;4995982;28;20041;-78
2021/05/20 04:46:37;;;;;;;5.47;4.30;;;12.10;94.30;;;;;;5008626;28;20041;-79
2021/05/20 04:49:11;;;;;;;4.65;4.13;;;12.10;94.30;;;;;;5011410;28;20034;-78
2021/05/20 04:51:37;;;;;;;5.65;3.80;;;12.10;94.20;;;;;;5008762;28;20047;-77
2021/05/20 04:54:04;;;;;;;5.55;3.95;;;12.10;94.30;;;;;;5006616;28;20042;-78
2021/05/20 04:56:29;;;;;;;4.03;3.13;;;12.00;94.20;;;;;;5011626;28;20052;-78
2021/05/20 04:58:55;;;;;;;4.47;3.45;;;12.10;94.30;;;;;;5007828;28;20061;-78
2021/05/20 05:01:20;;;;;;;3.55;3.10;;;12.10;93.80;;;;;;5012848;28;20124;-78
2021/05/20 05:03:46;;;;;;;3.50;3.15;;;12.10;93.90;;;;;;5010562;28;20050;-78
2021/05/20 05:06:11;;;;;;;4.93;3.58;;;12.10;94.10;;;;;;5011334;28;20038;-78
2021/05/20 05:08:37;;;;;;;4.40;3.17;;;12.20;93.70;;;;;;5008019;28;20056;-78
2021/05/20 05:11:02;;;;;;;4.10;3.10;;;12.20;93.80;;;;;;5013428;28;20050;-78
2021/05/20 05:13:28;;;;;;;4.35;3.17;;;12.20;93.60;;;;;;5012691;28;20136;-78
2021/05/20 05:15:55;;;;;;;4.13;3.22;;;12.20;93.80;;;;;;5009450;28;20054;-78
2021/05/20 05:18:21;;;;;;;4.93;3.83;;;12.30;94.00;;;;;;5011833;28;20144;-79
2021/05/20 05:20:46;;;;;;;4.57;3.80;;;12.30;93.60;;;;;;5004868;28;20124;-78
2021/05/20 05:23:12;;;;;;;6.07;3.83;;;12.30;93.50;;;;;;5004499;28;20049;-77
2021/05/20 05:25:37;;;;;;;7.97;3.78;;;12.30;93.60;;;;;;5011498;28;20046;-78
2021/05/20 05:28:03;;;;;;;4.32;3.85;;;12.30;93.40;;;;;;5014990;28;20426;-78
2021/05/20 05:30:29;;;;;;;5.88;3.78;;;12.40;93.20;;;;;;5011959;28;20621;-78
2021/05/20 05:32:54;;;;;;;4.55;3.67;;;12.30;93.20;;;;;;5005010;28;20462;-79
2021/05/20 05:35:20;;;;;;;4.57;3.53;;;12.40;93.40;;;;;;5008941;28;20492;-79
2021/05/20 05:37:45;;;;;;;8.15;3.65;;;12.40;93.50;;;;;;5005317;28;20034;-79
2021/05/20 05:40:11;;;;;;;5.10;3.70;;;12.40;93.40;;;;;;5002174;28;20033;-78
2021/05/20 05:42:37;;;;;;;5.30;3.72;;;12.40;93.60;;;;;;5004168;28;20622;-79
2021/05/20 05:45:06;;;;;;;4.90;4.18;;;12.40;93.50;;;;;;5006698;28;20037;-79
2021/05/20 05:47:31;;;;;;;4.22;3.50;;;12.50;93.80;;;;;;5006150;28;20390;-78
2021/05/20 05:50:03;;;;;;;3.58;3.20;;;12.60;93.50;;;;;;5005814;28;20099;-78
2021/05/20 05:52:29;;;;;;;4.97;3.97;;;12.70;93.10;;;;;;5008100;28;20046;-78
2021/05/20 05:54:54;;;;;;;6.28;3.85;;;12.80;92.80;;;;;;5002524;28;20034;-78
2021/05/20 05:57:19;;;;;;;4.15;3.28;;;12.80;92.90;;;;;;5005718;28;20398;-77
2021/05/20 05:59:48;;;;;;;5.38;3.47;;;12.90;92.80;;;;;;5003737;28;20030;-78
2021/05/20 06:02:14;;;;;;;4.90;3.95;;;13.00;92.40;;;;;;5003183;28;20669;-78
2021/05/20 06:04:39;;;;;;;4.70;3.25;;;13.00;92.40;;;;;;4999921;28;20052;-78
2021/05/20 06:07:05;;;;;;;5.20;3.72;;;13.10;91.90;;;;;;5007723;28;20050;-78
2021/05/20 06:09:30;;;;;;;5.25;3.88;;;13.10;92.10;;;;;;5005184;28;20107;-79
2021/05/20 06:11:59;;;;;;;5.60;4.05;;;13.10;92.10;;;;;;5024041;28;20046;-77
2021/05/20 06:14:24;;;;;;;4.88;3.35;;;13.10;92.00;;;;;;5008898;28;20061;-80
2021/05/20 06:16:50;;;;;;;7.03;3.63;;;13.10;91.80;;;;;;4997278;28;20034;-78
2021/05/20 06:19:15;;;;;;;5.15;3.70;;;13.10;92.00;;;;;;5005874;28;20038;-79
2021/05/20 06:21:41;;;;;;;6.68;3.70;;;13.00;92.00;;;;;;4999854;28;20235;-78
2021/05/20 06:24:07;;;;;;;9.27;4.95;;;13.00;91.90;;;;;;5008202;28;20159;-78
2021/05/20 06:26:33;;;;;;;5.68;3.80;;;13.00;92.20;;;;;;5008324;28;20045;-77
2021/05/20 06:28:59;;;;;;;8.55;4.10;;;12.90;91.90;;;;;;4999060;28;20038;-77
2021/05/20 06:31:24;;;;;;;6.03;3.92;;;13.00;92.10;;;;;;5000284;28;20034;-76
2021/05/20 06:33:50;;;;;;;10.73;4.20;;;12.90;92.10;;;;;;4997906;28;20155;-78
2021/05/20 06:36:16;;;;;;;6.45;4.57;;;13.00;91.90;;;;;;5003726;28;20049;-78
2021/05/20 06:38:42;;;;;;;8.75;4.50;;;13.00;92.10;;;;;;4998883;28;20536;-77
2021/05/20 06:41:09;;;;;;;5.82;3.90;;;13.00;92.30;;;;;;5007565;28;20038;-77
2021/05/20 06:43:38;;;;;;;4.30;3.90;;;13.10;92.00;;;;;;4994998;28;20414;-77
2021/05/20 06:46:05;;;;;;;4.97;4.20;;;13.10;91.80;;;;;;5011024;28;20096;-78
2021/05/20 06:48:31;;;;;;;4.47;3.13;;;13.10;92.00;;;;;;5011508;28;20044;-76
2021/05/20 06:50:57;;;;;;;7.53;4.40;;;13.20;92.20;;;;;;5001051;28;20049;-77
2021/05/20 06:53:24;;;;;;;6.05;4.18;;;13.30;91.50;;;;;;5010478;28;20045;-77
2021/05/20 06:55:54;;;;;;;10.43;4.25;;;13.40;91.90;;;;;;5004989;28;20038;-77
2021/05/20 07:01:04;;;;;;;5.95;4.55;;;13.50;91.40;;;;;;4997033;28;20361;-77
2021/05/20 07:03:29;;;;;;;7.50;4.88;;;13.50;91.10;;;;;;5012223;28;20034;-79
2021/05/20 07:05:55;;;;;;;8.15;5.05;;;13.60;91.60;;;;;;5001623;28;20046;-78
2021/05/20 07:08:21;;;;;;;5.72;4.35;;;13.60;91.20;;;;;;5003595;28;20039;-77
2021/05/20 07:10:46;;;;;;;5.22;4.28;;;13.70;91.40;;;;;;5001956;28;20045;-77
2021/05/20 07:13:12;;;;;;;5.75;4.20;;;13.70;91.00;;;;;;5008855;28;20436;-77
2021/05/20 07:15:37;;;;;;;6.50;4.50;;;13.70;91.10;;;;;;5003250;28;20050;-76
2021/05/20 07:18:03;;;;;;;8.20;4.40;;;13.70;91.10;;;;;;5006955;28;20127;-78
2021/05/20 07:20:28;;;;;;;7.30;4.78;;;13.80;90.90;;;;;;5002768;28;20069;-78
2021/05/20 07:22:54;;;;;;;6.18;4.60;;;13.90;90.60;;;;;;5017851;28;20045;-78
2021/05/20 07:25:19;;;;;;;8.52;5.35;;;13.90;91.00;;;;;;5001496;28;20042;-77
2021/05/20 07:27:45;;;;;;;7.00;5.40;;;13.90;90.60;;;;;;5002643;28;20398;-78
2021/05/20 07:30:11;;;;;;;5.47;4.70;;;13.90;90.20;;;;;;5008689;28;20093;-77
2021/05/20 07:32:37;;;;;;;16.25;5.72;;;13.80;90.40;;;;;;5011548;28;20052;-77
2021/05/20 07:35:03;;;;;;;13.55;4.85;;;13.80;90.90;;;;;;5010622;28;20046;-77
2021/05/20 07:37:29;;;;;;;7.13;4.95;;;13.80;90.40;;;;;;5015246;28;20029;-79
2021/05/20 07:39:54;;;;;;;6.95;5.80;;;13.90;90.80;;;;;;5005686;28;20679;-78
2021/05/20 07:42:20;;;;;;;7.65;5.50;;;14.00;90.80;;;;;;5003533;28;20042;-77
2021/05/20 07:44:46;;;;;;;7.40;5.40;;;14.10;90.70;;;;;;5010843;28;20042;-78
2021/05/20 07:47:12;;;;;;;7.78;6.00;;;14.30;90.50;;;;;;5005710;28;20444;-78
2021/05/20 07:49:38;;;;;;;7.35;6.20;;;14.40;90.10;;;;;;5009236;28;20081;-78
2021/05/20 07:52:07;;;;;;;6.43;5.72;;;14.50;89.70;;;;;;5009857;28;20065;-78
2021/05/20 07:54:33;;;;;;;9.73;6.35;;;14.60;88.00;;;;;;5009529;28;20044;-77
2021/05/20 07:56:59;;;;;;;9.02;6.47;;;14.60;88.00;;;;;;5002929;28;20084;-78
2021/05/20 07:59:24;;;;;;;8.65;6.82;;;14.60;88.50;;;;;;5003152;28;20696;-77
2021/05/20 08:02:03;;;;;;;9.73;6.93;;;14.70;87.40;;;;;;5008826;28;20053;-77
2021/05/20 08:04:30;;;;;;;7.20;5.70;;;14.70;87.00;;;;;;5007941;28;20035;-78
2021/05/20 08:07:13;;;;;;;7.30;5.55;;;14.60;86.90;;;;;;5003403;28;20614;-77
2021/05/20 08:09:47;;;;;;;10.55;6.25;;;14.70;87.50;;;;;;5002076;28;20041;-77
2021/05/20 08:12:12;;;;;;;9.93;7.13;;;14.80;86.60;;;;;;5003636;28;20041;-76
2021/05/20 08:14:38;;;;;;;6.50;5.22;;;14.80;85.70;;;;;;5008424;28;20041;-76
2021/05/20 08:17:03;;;;;;;6.00;5.20;;;14.80;86.30;;;;;;5008716;28;20050;-77
2021/05/20 08:19:29;;;;;;;5.88;4.90;;;14.80;84.70;;;;;;5006635;28;20520;-77
2021/05/20 08:21:54;;;;;;;9.23;5.65;;;14.80;84.90;;;;;;4998973;28;20042;-77
2021/05/20 08:24:20;;;;;;;6.53;4.85;;;14.90;85.60;;;;;;5003800;28;20293;-76
2021/05/20 08:26:45;;;;;;;6.72;4.95;;;14.90;84.60;;;;;;5014465;28;20041;-77
2021/05/20 08:29:11;;;;;;;6.32;5.40;;;15.00;83.30;;;;;;4997995;28;20038;-76
2021/05/20 08:31:37;;;;;;;7.05;6.03;;;15.10;83.90;;;;;;5011836;28;20042;-77
2021/05/20 08:34:03;;;;;;;7.00;5.47;;;15.10;84.70;;;;;;5018985;28;20029;-76
2021/05/20 08:36:29;;;;;;;6.88;5.32;;;15.20;82.70;;;;;;5005996;28;20049;-77
2021/05/20 08:38:55;;;;;;;6.10;5.50;;;15.30;83.80;;;;;;5013637;28;20456;-77
2021/05/20 08:41:21;;;;;;;6.53;5.55;;;15.30;83.00;;;;;;5013508;28;20126;-77
2021/05/20 08:43:46;;;;;;;8.02;5.20;;;15.50;81.10;;;;;;5012476;28;20712;-77
2021/05/20 08:46:12;;;;;;;5.22;4.72;;;15.60;82.70;;;;;;4996449;28;20042;-77
2021/05/20 08:48:38;;;;;;;6.22;5.05;;;15.70;82.50;;;;;;5001002;28;20037;-76
2021/05/20 08:51:04;;;;;;;5.80;4.57;;;15.80;81.00;;;;;;5007222;28;20053;-75
2021/05/20 08:53:30;;;;;;;6.63;5.18;;;15.80;80.30;;;;;;4997573;28;20038;-76
2021/05/20 08:55:55;;;;;;;4.28;3.88;;;15.80;81.30;;;;;;5008023;28;20314;-76
2021/05/20 08:58:25;;;;;;;5.43;4.22;;;15.70;80.60;;;;;;5001806;28;20305;-77
2021/05/20 09:00:51;;;;;;;5.50;4.03;;;15.70;78.80;;;;;;5014808;28;20710;-77
2021/05/20 09:03:18;;;;;;;7.65;5.35;;;15.60;81.20;;;;;;5015332;28;20152;-77
2021/05/20 09:05:43;;;;;;;8.60;5.43;;;15.60;81.90;;;;;;5013327;28;20076;-77
2021/05/20 09:08:14;;;;;;;5.40;4.47;;;15.70;82.00;;;;;;5015156;28;20065;-75
2021/05/20 09:10:41;;;;;;;5.72;4.32;;;15.80;80.50;;;;;;5007755;28;20042;-75
2021/05/20 09:13:12;;;;;;;6.00;4.63;;;15.80;77.70;;;;;;4999833;28;20045;-75
2021/05/20 09:15:43;;;;;;;5.22;4.72;;;15.70;79.90;;;;;;5015612;28;20045;-75
2021/05/20 09:18:14;;;;;;;7.97;5.03;;;15.70;80.20;;;;;;5008522;28;20092;-75
2021/05/20 09:20:45;;;;;;;8.63;5.35;;;16.00;79.20;;;;;;4995620;28;20057;-76
2021/05/20 09:23:14;;;;;;;5.32;4.75;;;16.30;80.50;;;;;;4995575;28;20108;-76
2021/05/20 09:25:42;;;;;;;6.40;3.85;;;16.50;78.50;;;;;;5009138;28;20034;-75
2021/05/20 09:28:09;;;;;;;4.65;4.05;;;16.80;77.70;;;;;;5001300;28;20317;-76
2021/05/20 09:30:39;;;;;;;5.63;4.07;;;17.00;76.00;;;;;;4996894;28;20077;-76
2021/05/20 09:33:13;;;;;;;5.15;4.13;;;17.20;76.10;;;;;;5013447;28;20077;-76
2021/05/20 09:35:40;;;;;;;4.07;3.67;;;17.40;76.60;;;;;;5015491;28;20053;-76
2021/05/20 09:38:11;;;;;;;4.22;3.80;;;17.70;72.10;;;;;;5007488;28;20034;-76
2021/05/20 09:40:58;;;;;;;2.90;2.70;;;17.90;72.80;;;;;;4994799;28;20398;-76
2021/05/20 09:43:33;;;;;;;5.78;3.97;;;18.00;71.80;;;;;;4996747;28;20042;-76
2021/05/20 09:46:13;;;;;;;4.55;4.00;;;18.00;72.10;;;;;;5000931;28;20041;-76
2021/05/20 09:48:43;;;;;;;4.72;4.22;;;17.90;71.20;;;;;;5014489;28;20045;-76
2021/05/20 09:51:27;;;;;;;4.28;3.78;;;17.60;72.60;;;;;;5013177;28;20042;-77
2021/05/20 09:53:54;;;;;;;4.85;3.90;;;17.50;73.20;;;;;;5013922;28;20056;-76
2021/05/20 09:56:32;;;;;;;7.05;4.07;;;17.30;73.70;;;;;;5013144;28;20042;-76
2021/05/20 09:58:57;;;;;;;3.53;3.17;;;17.10;73.60;;;;;;5005256;28;20041;-76
2021/05/20 10:01:23;;;;;;;4.35;3.60;;;17.00;74.70;;;;;;4994661;28;20042;-76
2021/05/20 10:03:56;;;;;;;4.70;3.47;;;17.00;72.60;;;;;;4995258;28;20349;-76
2021/05/20 10:06:38;;;;;;;4.68;3.38;;;17.10;73.80;;;;;;4996738;28;20049;-75
2021/05/20 10:09:05;;;;;;;13.07;3.70;;;17.10;74.00;;;;;;4995975;28;20034;-75
2021/05/20 10:11:33;;;;;;;2.72;2.30;;;17.10;72.60;;;;;;4995219;28;20125;-75
2021/05/20 10:13:59;;;;;;;3.17;2.15;;;17.20;70.60;;;;;;4998753;28;20045;-75
2021/05/20 10:16:26;;;;;;;2.80;2.40;;;17.30;69.90;;;;;;5012505;28;20102;-76
2021/05/20 10:18:54;;;;;;;2.70;2.50;;;17.40;71.70;;;;;;5014381;28;20042;-74
2021/05/20 10:21:20;;;;;;;3.13;2.08;;;17.50;69.60;;;;;;5007336;28;20069;-75
2021/05/20 10:23:45;;;;;;;2.35;2.15;;;17.60;70.90;;;;;;4995164;28;20070;-75
2021/05/20 10:26:13;;;;;;;4.47;2.90;;;17.70;69.70;;;;;;5001246;28;20038;-75
2021/05/20 10:28:38;;;;;;;4.47;3.95;;;17.70;69.80;;;;;;5014744;28;20417;-75
2021/05/20 10:31:04;;;;;;;6.07;3.72;;;17.60;72.10;;;;;;5001813;28;20053;-76
2021/05/20 10:33:30;;;;;;;7.40;4.10;;;17.50;72.60;;;;;;4994858;28;20150;-75
2021/05/20 10:35:57;;;;;;;5.30;3.88;;;17.50;72.50;;;;;;4995093;28;20310;-76
2021/05/20 10:38:28;;;;;;;5.95;3.78;;;17.40;72.30;;;;;;4994454;28;20438;-75
2021/05/20 10:41:18;;;;;;;5.25;3.95;;;17.40;72.20;;;;;;4994396;28;20104;-75
2021/05/20 10:43:45;;;;;;;6.47;2.92;;;17.30;73.50;;;;;;5021399;28;20063;-74
2021/05/20 10:46:15;;;;;;;6.47;2.88;;;17.30;69.80;;;;;;5003059;28;20056;-76
2021/05/20 10:49:00;;;;;;;4.65;3.63;;;17.30;70.40;;;;;;5005075;28;20033;-74
2021/05/20 10:51:35;;;;;;;3.78;2.90;;;17.40;68.70;;;;;;5003472;28;20038;-74
2021/05/20 10:54:03;;;;;;;4.32;3.33;;;17.50;70.60;;;;;;4998434;28;20037;-74
2021/05/20 10:56:29;;;;;;;3.33;3.03;;;17.70;70.90;;;;;;5004905;28;20054;-74
2021/05/20 10:58:55;;;;;;;3.90;2.88;;;17.90;69.50;;;;;;4996553;28;20117;-76
2021/05/20 11:01:20;;;;;;;5.15;3.30;;;17.90;68.60;;;;;;5006256;28;20046;-77
2021/05/20 11:03:54;;;;;;;5.50;3.17;;;17.80;68.60;;;;;;4994581;28;20410;-77
2021/05/20 11:06:44;;;;;;;3.47;2.90;;;17.80;71.10;;;;;;4994064;28;20038;-77
2021/05/20 11:09:16;;;;;;;4.65;2.88;;;18.00;68.40;;;;;;5012707;28;20065;-76
2021/05/20 11:11:41;;;;;;;4.95;2.63;;;18.10;66.20;;;;;;5013241;28;20431;-76
2021/05/20 11:14:13;;;;;;;4.75;3.72;;;18.20;67.60;;;;;;5017177;28;20065;-77
2021/05/20 11:16:43;;;;;;;7.93;3.40;;;18.30;65.70;;;;;;4998792;28;20038;-76
2021/05/20 11:19:25;;;;;;;4.78;2.80;;;18.50;67.30;;;;;;5005073;28;20042;-77
2021/05/20 11:24:32;;;;;;;1.88;1.67;;;19.00;65.00;;;;;;5017677;28;20082;-77
2021/05/20 11:27:00;;;;;;;3.13;2.55;;;19.20;63.20;;;;;;5003979;28;20120;-77
2021/05/20 11:29:27;;;;;;;3.65;2.97;;;19.30;62.50;;;;;;5003945;28;20121;-77
2021/05/20 11:31:58;;;;;;;3.03;2.50;;;19.30;61.40;;;;;;4998974;28;20049;-77
2021/05/20 11:34:36;;;;;;;3.15;2.47;;;19.10;61.70;;;;;;5010394;28;20034;-78
2021/05/20 11:37:02;;;;;;;4.82;2.83;;;19.00;61.60;;;;;;5025204;28;20186;-76
2021/05/20 11:39:28;;;;;;;3.05;2.20;;;18.80;61.60;;;;;;5009002;28;20121;-76
2021/05/20 11:41:56;;;;;;;2.85;2.58;;;18.60;61.70;;;;;;5012726;28;20405;-76
2021/05/20 11:44:23;;;;;;;3.40;2.30;;;18.40;63.70;;;;;;5010860;28;20065;-76
2021/05/20 11:47:09;;;;;;;3.22;2.92;;;18.30;64.50;;;;;;5006644;28;20457;-77
2021/05/20 11:49:36;;;;;;;3.28;2.67;;;18.20;65.10;;;;;;5001326;28;20127;-77
2021/05/20 11:52:11;;;;;;;2.92;2.20;;;18.20;64.30;;;;;;5007358;28;20038;-78
2021/05/20 11:54:46;;;;;;;5.53;2.92;;;18.30;65.00;;;;;;5006940;28;20095;-77
2021/05/20 11:57:13;;;;;;;3.88;2.65;;;18.30;64.80;;;;;;5006443;28;20122;-77
2021/05/20 11:59:45;;;;;;;2.72;2.17;;;18.40;65.60;;;;;;5006057;28;20046;-77
2021/05/20 12:02:14;;;;;;;2.53;1.98;;;18.50;66.90;;;;;;5005599;28;20042;-76
2021/05/20 12:04:40;;;;;;;3.72;1.50;;;18.50;63.50;;;;;;5009611;28;20038;-76
2021/05/20 12:07:07;;;;;;;3.05;1.90;;;18.60;65.20;;;;;;5015600;28;20042;-77
2021/05/20 12:09:33;;;;;;;2.45;1.52;;;18.90;60.80;;;;;;5021354;28;20632;-77
2021/05/20 12:12:11;;;;;;;4.32;1.35;;;19.10;61.50;;;;;;5016242;28;20111;-77
2021/05/20 12:14:37;;;;;;;2.20;1.23;;;19.40;59.30;;;;;;5004918;28;20038;-76
2021/05/20 12:17:15;;;;;;;3.63;1.90;;;19.60;58.50;;;;;;5010916;28;20045;-76
2021/05/20 12:19:46;;;;;;;2.35;1.42;;;19.70;64.40;;;;;;5010535;28;20038;-76
2021/05/20 12:22:23;;;;;;;1.60;1.05;;;20.00;59.70;;;;;;5012052;28;20115;-77
2021/05/20 12:25:04;;;;;;;8.43;1.38;;;20.20;59.40;;;;;;5009373;28;20038;-77
2021/05/20 12:27:43;;;;;;;3.50;0.95;;;20.30;58.50;;;;;;4996408;28;20042;-77
2021/05/20 12:30:09;;;;;;;1.70;1.30;;;20.30;56.20;;;;;;4996341;28;20050;-76
2021/05/20 12:32:35;;;;;;;2.30;1.33;;;20.20;56.60;;;;;;4996948;28;20486;-77
2021/05/20 12:35:10;;;;;;;1.95;1.27;;;20.10;58.70;;;;;;4995539;28;20108;-78
2021/05/20 12:37:47;;;;;;;2.67;1.38;;;20.10;58.70;;;;;;4999323;28;20378;-77
2021/05/20 12:40:18;;;;;;;1.48;1.30;;;20.30;56.20;;;;;;5002671;28;20034;-77
2021/05/20 12:43:17;;;;;;;1.90;1.50;;;20.50;59.80;;;;;;5014463;28;20572;-77
2021/05/20 12:45:53;;;;;;;1.60;1.00;;;20.60;59.00;;;;;;5016123;28;20050;-78
2021/05/20 12:48:23;;;;;;;2.25;1.08;;;20.70;58.80;;;;;;5012168;28;20133;-77
2021/05/20 12:50:49;;;;;;;1.40;0.93;;;20.90;57.30;;;;;;5004192;28;20038;-77
2021/05/20 12:53:27;;;;;;;1.67;1.08;;;20.90;55.50;;;;;;5001589;28;20038;-76